sensor_id;sensor_type;location;lat;lon;timestamp;P1;durP1;ratioP1;P2;durP2;ratioP2
4642;SDS011;2334;48.710;9.622;2023-04-25T00:00:53;1.83;;;1.73;;
4642;SDS011;2334;48.710;9.622;2023-04-25T00:03:20;1.57;;;1.47;;
4642;SDS011;2334;48.710;9.622;2023-04-25T00:05:48;1.80;;;1.70;;
4642;SDS011;2334;48.710;9.622;2023-04-25T00:08:16;5.60;;;1.97;;
4642;SDS011;2334;48.710;9.622;2023-04-25T00:10:43;6.37;;;2.50;;
4642;SDS011;2334;48.710;9.622;2023-04-25T00:13:10;2.13;;;1.60;;
4642;SDS011;2334;48.710;9.622;2023-04-25T00:15:37;4.50;;;2.00;;
4642;SDS011;2334;48.710;9.622;2023-04-25T00:18:06;1.80;;;1.63;;
4642;SDS011;2334;48.710;9.622;2023-04-25T00:20:34;7.07;;;2.23;;
4642;SDS011;2334;48.710;9.622;2023-04-25T00:23:03;3.33;;;2.37;;
4642;SDS011;2334;48.710;9.622;2023-04-25T00:25:31;1.93;;;1.83;;
4642;SDS011;2334;48.710;9.622;2023-04-25T00:27:58;2.40;;;2.20;;
4642;SDS011;2334;48.710;9.622;2023-04-25T00:30:25;3.23;;;2.33;;
4642;SDS011;2334;48.710;9.622;2023-04-25T00:32:51;2.13;;;1.90;;
4642;SDS011;2334;48.710;9.622;2023-04-25T00:35:18;1.90;;;1.80;;
4642;SDS011;2334;48.710;9.622;2023-04-25T00:37:46;3.97;;;2.30;;
4642;SDS011;2334;48.710;9.622;2023-04-25T00:40:14;4.77;;;2.80;;
4642;SDS011;2334;48.710;9.622;2023-04-25T00:42:41;5.20;;;2.20;;
4642;SDS011;2334;48.710;9.622;2023-04-25T00:45:08;6.17;;;2.40;;
4642;SDS011;2334;48.710;9.622;2023-04-25T00:47:38;5.40;;;2.90;;
4642;SDS011;2334;48.710;9.622;2023-04-25T00:50:07;4.03;;;2.40;;
4642;SDS011;2334;48.710;9.622;2023-04-25T00:52:34;3.40;;;2.97;;
4642;SDS011;2334;48.710;9.622;2023-04-25T00:55:01;2.63;;;2.40;;
4642;SDS011;2334;48.710;9.622;2023-04-25T00:57:30;7.87;;;2.70;;
4642;SDS011;2334;48.710;9.622;2023-04-25T00:59:57;3.57;;;2.20;;
4642;SDS011;2334;48.710;9.622;2023-04-25T01:02:25;2.70;;;2.37;;
4642;SDS011;2334;48.710;9.622;2023-04-25T01:04:52;8.33;;;2.60;;
4642;SDS011;2334;48.710;9.622;2023-04-25T01:07:19;6.37;;;3.53;;
4642;SDS011;2334;48.710;9.622;2023-04-25T01:09:46;4.40;;;2.93;;
4642;SDS011;2334;48.710;9.622;2023-04-25T01:12:13;4.20;;;2.60;;
4642;SDS011;2334;48.710;9.622;2023-04-25T01:14:41;11.03;;;2.47;;
4642;SDS011;2334;48.710;9.622;2023-04-25T01:17:08;8.90;;;2.40;;
4642;SDS011;2334;48.710;9.622;2023-04-25T01:19:36;3.20;;;2.40;;
4642;SDS011;2334;48.710;9.622;2023-04-25T01:22:04;5.23;;;2.97;;
4642;SDS011;2334;48.710;9.622;2023-04-25T01:24:32;2.50;;;2.30;;
4642;SDS011;2334;48.710;9.622;2023-04-25T01:26:59;3.03;;;2.73;;
4642;SDS011;2334;48.710;9.622;2023-04-25T01:29:27;2.23;;;1.90;;
4642;SDS011;2334;48.710;9.622;2023-04-25T01:31:54;2.30;;;1.90;;
4642;SDS011;2334;48.710;9.622;2023-04-25T01:34:23;2.47;;;2.07;;
4642;SDS011;2334;48.710;9.622;2023-04-25T01:36:51;2.23;;;2.03;;
4642;SDS011;2334;48.710;9.622;2023-04-25T01:39:20;2.93;;;2.70;;
4642;SDS011;2334;48.710;9.622;2023-04-25T01:41:47;2.50;;;2.13;;
4642;SDS011;2334;48.710;9.622;2023-04-25T01:44:14;2.70;;;2.50;;
4642;SDS011;2334;48.710;9.622;2023-04-25T01:46:41;4.87;;;2.40;;
4642;SDS011;2334;48.710;9.622;2023-04-25T01:49:08;2.17;;;1.97;;
4642;SDS011;2334;48.710;9.622;2023-04-25T01:51:35;4.30;;;2.23;;
4642;SDS011;2334;48.710;9.622;2023-04-25T01:54:03;2.50;;;2.20;;
4642;SDS011;2334;48.710;9.622;2023-04-25T01:56:31;3.70;;;2.53;;
4642;SDS011;2334;48.710;9.622;2023-04-25T01:58:59;5.63;;;3.10;;
4642;SDS011;2334;48.710;9.622;2023-04-25T02:01:26;2.63;;;2.47;;
4642;SDS011;2334;48.710;9.622;2023-04-25T02:03:52;3.70;;;3.00;;
4642;SDS011;2334;48.710;9.622;2023-04-25T02:06:19;3.77;;;3.20;;
4642;SDS011;2334;48.710;9.622;2023-04-25T02:08:46;3.00;;;2.70;;
4642;SDS011;2334;48.710;9.622;2023-04-25T02:11:13;4.27;;;2.70;;
4642;SDS011;2334;48.710;9.622;2023-04-25T02:13:41;2.50;;;2.30;;
4642;SDS011;2334;48.710;9.622;2023-04-25T02:16:08;3.93;;;3.10;;
4642;SDS011;2334;48.710;9.622;2023-04-25T02:18:35;17.03;;;3.43;;
4642;SDS011;2334;48.710;9.622;2023-04-25T02:21:04;3.20;;;3.00;;
4642;SDS011;2334;48.710;9.622;2023-04-25T02:23:31;2.50;;;2.30;;
4642;SDS011;2334;48.710;9.622;2023-04-25T02:25:58;3.20;;;2.90;;
4642;SDS011;2334;48.710;9.622;2023-04-25T02:28:25;3.67;;;2.90;;
4642;SDS011;2334;48.710;9.622;2023-04-25T02:30:53;3.80;;;2.37;;
4642;SDS011;2334;48.710;9.622;2023-04-25T02:33:20;6.63;;;2.50;;
4642;SDS011;2334;48.710;9.622;2023-04-25T02:35:47;3.00;;;2.70;;
4642;SDS011;2334;48.710;9.622;2023-04-25T02:38:14;2.50;;;2.30;;
4642;SDS011;2334;48.710;9.622;2023-04-25T02:40:41;3.33;;;2.70;;
4642;SDS011;2334;48.710;9.622;2023-04-25T02:43:07;10.03;;;3.03;;
4642;SDS011;2334;48.710;9.622;2023-04-25T02:45:34;3.30;;;3.00;;
4642;SDS011;2334;48.710;9.622;2023-04-25T02:48:04;3.27;;;2.80;;
4642;SDS011;2334;48.710;9.622;2023-04-25T02:50:31;5.30;;;3.10;;
4642;SDS011;2334;48.710;9.622;2023-04-25T02:52:58;2.83;;;2.63;;
4642;SDS011;2334;48.710;9.622;2023-04-25T02:55:25;3.47;;;2.63;;
4642;SDS011;2334;48.710;9.622;2023-04-25T02:57:52;3.63;;;2.40;;
4642;SDS011;2334;48.710;9.622;2023-04-25T03:00:20;4.00;;;2.97;;
4642;SDS011;2334;48.710;9.622;2023-04-25T03:02:47;4.37;;;3.23;;
4642;SDS011;2334;48.710;9.622;2023-04-25T03:05:16;2.50;;;2.40;;
4642;SDS011;2334;48.710;9.622;2023-04-25T03:07:42;3.43;;;2.73;;
4642;SDS011;2334;48.710;9.622;2023-04-25T03:10:10;3.33;;;2.80;;
4642;SDS011;2334;48.710;9.622;2023-04-25T03:12:37;4.87;;;3.30;;
4642;SDS011;2334;48.710;9.622;2023-04-25T03:15:04;4.20;;;2.33;;
4642;SDS011;2334;48.710;9.622;2023-04-25T03:17:32;3.07;;;2.77;;
4642;SDS011;2334;48.710;9.622;2023-04-25T03:19:59;2.83;;;2.63;;
4642;SDS011;2334;48.710;9.622;2023-04-25T03:22:27;2.50;;;2.30;;
4642;SDS011;2334;48.710;9.622;2023-04-25T03:24:54;3.00;;;2.30;;
4642;SDS011;2334;48.710;9.622;2023-04-25T03:27:21;3.00;;;2.70;;
4642;SDS011;2334;48.710;9.622;2023-04-25T03:29:47;2.00;;;1.90;;
4642;SDS011;2334;48.710;9.622;2023-04-25T03:32:14;2.00;;;1.90;;
4642;SDS011;2334;48.710;9.622;2023-04-25T03:34:41;2.83;;;2.60;;
4642;SDS011;2334;48.710;9.622;2023-04-25T03:37:08;3.17;;;2.87;;
4642;SDS011;2334;48.710;9.622;2023-04-25T03:39:36;4.50;;;2.60;;
4642;SDS011;2334;48.710;9.622;2023-04-25T03:42:03;11.70;;;3.53;;
4642;SDS011;2334;48.710;9.622;2023-04-25T03:44:30;5.20;;;3.10;;
4642;SDS011;2334;48.710;9.622;2023-04-25T03:46:57;4.60;;;3.13;;
4642;SDS011;2334;48.710;9.622;2023-04-25T03:49:24;4.40;;;2.90;;
4642;SDS011;2334;48.710;9.622;2023-04-25T03:51:51;3.80;;;3.20;;
4642;SDS011;2334;48.710;9.622;2023-04-25T03:54:18;3.43;;;2.87;;
4642;SDS011;2334;48.710;9.622;2023-04-25T03:56:46;4.17;;;2.67;;
4642;SDS011;2334;48.710;9.622;2023-04-25T03:59:13;2.77;;;2.57;;
4642;SDS011;2334;48.710;9.622;2023-04-25T04:01:40;5.70;;;2.30;;
4642;SDS011;2334;48.710;9.622;2023-04-25T04:04:07;5.37;;;2.47;;
4642;SDS011;2334;48.710;9.622;2023-04-25T04:06:34;3.90;;;3.17;;
4642;SDS011;2334;48.710;9.622;2023-04-25T04:09:01;5.87;;;3.30;;
4642;SDS011;2334;48.710;9.622;2023-04-25T04:11:28;2.77;;;2.57;;
4642;SDS011;2334;48.710;9.622;2023-04-25T04:13:57;3.00;;;2.80;;
4642;SDS011;2334;48.710;9.622;2023-04-25T04:16:25;3.50;;;2.93;;
4642;SDS011;2334;48.710;9.622;2023-04-25T04:18:51;6.33;;;3.30;;
4642;SDS011;2334;48.710;9.622;2023-04-25T04:21:18;3.43;;;3.03;;
4642;SDS011;2334;48.710;9.622;2023-04-25T04:23:45;4.23;;;3.47;;
4642;SDS011;2334;48.710;9.622;2023-04-25T04:26:13;4.50;;;3.47;;
4642;SDS011;2334;48.710;9.622;2023-04-25T04:28:41;6.13;;;3.20;;
4642;SDS011;2334;48.710;9.622;2023-04-25T04:31:10;3.40;;;3.10;;
4642;SDS011;2334;48.710;9.622;2023-04-25T04:33:37;3.10;;;2.80;;
4642;SDS011;2334;48.710;9.622;2023-04-25T04:36:04;4.33;;;3.63;;
4642;SDS011;2334;48.710;9.622;2023-04-25T04:38:32;6.63;;;2.90;;
4642;SDS011;2334;48.710;9.622;2023-04-25T04:41:00;6.40;;;3.10;;
4642;SDS011;2334;48.710;9.622;2023-04-25T04:43:27;5.30;;;2.97;;
4642;SDS011;2334;48.710;9.622;2023-04-25T04:45:54;3.23;;;2.63;;
4642;SDS011;2334;48.710;9.622;2023-04-25T04:48:23;5.43;;;2.43;;
4642;SDS011;2334;48.710;9.622;2023-04-25T04:50:50;8.70;;;3.60;;
4642;SDS011;2334;48.710;9.622;2023-04-25T04:53:17;5.20;;;3.03;;
4642;SDS011;2334;48.710;9.622;2023-04-25T04:55:44;5.03;;;2.90;;
4642;SDS011;2334;48.710;9.622;2023-04-25T04:58:11;3.87;;;3.30;;
4642;SDS011;2334;48.710;9.622;2023-04-25T05:00:38;6.80;;;3.30;;
4642;SDS011;2334;48.710;9.622;2023-04-25T05:03:05;6.23;;;3.23;;
4642;SDS011;2334;48.710;9.622;2023-04-25T05:05:33;4.70;;;3.50;;
4642;SDS011;2334;48.710;9.622;2023-04-25T05:08:00;5.37;;;3.10;;
4642;SDS011;2334;48.710;9.622;2023-04-25T05:10:27;2.40;;;2.20;;
4642;SDS011;2334;48.710;9.622;2023-04-25T05:12:54;13.40;;;2.80;;
4642;SDS011;2334;48.710;9.622;2023-04-25T05:15:21;2.50;;;2.30;;
4642;SDS011;2334;48.710;9.622;2023-04-25T05:17:47;6.13;;;2.97;;
4642;SDS011;2334;48.710;9.622;2023-04-25T05:20:14;3.63;;;2.37;;
4642;SDS011;2334;48.710;9.622;2023-04-25T05:22:44;3.23;;;2.30;;
4642;SDS011;2334;48.710;9.622;2023-04-25T05:25:11;7.00;;;2.97;;
4642;SDS011;2334;48.710;9.622;2023-04-25T05:27:38;4.60;;;2.87;;
4642;SDS011;2334;48.710;9.622;2023-04-25T05:30:05;5.23;;;2.70;;
4642;SDS011;2334;48.710;9.622;2023-04-25T05:32:33;4.73;;;3.30;;
4642;SDS011;2334;48.710;9.622;2023-04-25T05:35:00;3.33;;;2.47;;
4642;SDS011;2334;48.710;9.622;2023-04-25T05:37:27;4.60;;;2.87;;
4642;SDS011;2334;48.710;9.622;2023-04-25T05:39:56;4.57;;;2.80;;
4642;SDS011;2334;48.710;9.622;2023-04-25T05:42:23;3.13;;;2.27;;
4642;SDS011;2334;48.710;9.622;2023-04-25T05:44:50;4.57;;;2.80;;
4642;SDS011;2334;48.710;9.622;2023-04-25T05:47:17;2.73;;;2.50;;
4642;SDS011;2334;48.710;9.622;2023-04-25T05:49:44;2.83;;;2.43;;
4642;SDS011;2334;48.710;9.622;2023-04-25T05:52:11;5.63;;;2.07;;
4642;SDS011;2334;48.710;9.622;2023-04-25T05:54:37;3.23;;;2.93;;
4642;SDS011;2334;48.710;9.622;2023-04-25T05:57:06;2.80;;;2.17;;
4642;SDS011;2334;48.710;9.622;2023-04-25T05:59:33;4.47;;;2.90;;
4642;SDS011;2334;48.710;9.622;2023-04-25T06:01:59;4.50;;;2.23;;
4642;SDS011;2334;48.710;9.622;2023-04-25T06:04:26;4.90;;;2.97;;
4642;SDS011;2334;48.710;9.622;2023-04-25T06:06:53;6.27;;;2.77;;
4642;SDS011;2334;48.710;9.622;2023-04-25T06:09:20;2.90;;;2.03;;
4642;SDS011;2334;48.710;9.622;2023-04-25T06:11:47;5.20;;;3.17;;
4642;SDS011;2334;48.710;9.622;2023-04-25T06:14:15;5.50;;;3.27;;
4642;SDS011;2334;48.710;9.622;2023-04-25T06:16:42;7.43;;;3.37;;
4642;SDS011;2334;48.710;9.622;2023-04-25T06:19:09;7.23;;;3.10;;
4642;SDS011;2334;48.710;9.622;2023-04-25T06:21:36;7.80;;;3.23;;
4642;SDS011;2334;48.710;9.622;2023-04-25T06:24:03;3.33;;;2.63;;
4642;SDS011;2334;48.710;9.622;2023-04-25T06:26:30;2.93;;;2.70;;
4642;SDS011;2334;48.710;9.622;2023-04-25T06:28:57;12.33;;;2.70;;
4642;SDS011;2334;48.710;9.622;2023-04-25T06:31:25;5.53;;;2.60;;
4642;SDS011;2334;48.710;9.622;2023-04-25T06:33:53;8.83;;;2.97;;
4642;SDS011;2334;48.710;9.622;2023-04-25T06:36:20;4.33;;;2.60;;
4642;SDS011;2334;48.710;9.622;2023-04-25T06:38:50;4.90;;;2.13;;
4642;SDS011;2334;48.710;9.622;2023-04-25T06:41:16;3.60;;;2.50;;
4642;SDS011;2334;48.710;9.622;2023-04-25T06:43:43;2.47;;;2.13;;
4642;SDS011;2334;48.710;9.622;2023-04-25T06:46:10;3.00;;;2.63;;
4642;SDS011;2334;48.710;9.622;2023-04-25T06:48:39;4.27;;;2.77;;
4642;SDS011;2334;48.710;9.622;2023-04-25T06:51:05;4.97;;;2.43;;
4642;SDS011;2334;48.710;9.622;2023-04-25T06:53:32;7.23;;;2.07;;
4642;SDS011;2334;48.710;9.622;2023-04-25T06:55:59;10.07;;;3.73;;
4642;SDS011;2334;48.710;9.622;2023-04-25T06:58:26;9.20;;;2.50;;
4642;SDS011;2334;48.710;9.622;2023-04-25T07:00:53;3.00;;;2.20;;
4642;SDS011;2334;48.710;9.622;2023-04-25T07:03:20;3.73;;;2.60;;
4642;SDS011;2334;48.710;9.622;2023-04-25T07:05:48;4.60;;;2.53;;
4642;SDS011;2334;48.710;9.622;2023-04-25T07:08:15;11.67;;;2.77;;
4642;SDS011;2334;48.710;9.622;2023-04-25T07:10:42;2.97;;;2.20;;
4642;SDS011;2334;48.710;9.622;2023-04-25T07:13:11;2.70;;;2.40;;
4642;SDS011;2334;48.710;9.622;2023-04-25T07:15:37;3.90;;;1.77;;
4642;SDS011;2334;48.710;9.622;2023-04-25T07:18:04;2.40;;;2.20;;
4642;SDS011;2334;48.710;9.622;2023-04-25T07:20:31;5.37;;;2.40;;
4642;SDS011;2334;48.710;9.622;2023-04-25T07:22:59;2.23;;;1.93;;
4642;SDS011;2334;48.710;9.622;2023-04-25T07:25:26;2.20;;;2.00;;
4642;SDS011;2334;48.710;9.622;2023-04-25T07:27:53;3.27;;;1.80;;
4642;SDS011;2334;48.710;9.622;2023-04-25T07:30:20;4.00;;;2.03;;
4642;SDS011;2334;48.710;9.622;2023-04-25T07:32:47;2.63;;;2.20;;
4642;SDS011;2334;48.710;9.622;2023-04-25T07:35:15;3.43;;;3.07;;
4642;SDS011;2334;48.710;9.622;2023-04-25T07:37:42;1.83;;;1.70;;
4642;SDS011;2334;48.710;9.622;2023-04-25T07:40:11;2.80;;;2.60;;
4642;SDS011;2334;48.710;9.622;2023-04-25T07:42:38;3.03;;;2.37;;
4642;SDS011;2334;48.710;9.622;2023-04-25T07:45:05;2.43;;;2.20;;
4642;SDS011;2334;48.710;9.622;2023-04-25T07:47:34;2.67;;;2.47;;
4642;SDS011;2334;48.710;9.622;2023-04-25T07:50:01;2.60;;;2.30;;
4642;SDS011;2334;48.710;9.622;2023-04-25T07:52:29;5.37;;;2.00;;
4642;SDS011;2334;48.710;9.622;2023-04-25T07:54:56;7.30;;;2.00;;
4642;SDS011;2334;48.710;9.622;2023-04-25T07:57:25;2.10;;;1.90;;
4642;SDS011;2334;48.710;9.622;2023-04-25T07:59:52;3.43;;;1.90;;
4642;SDS011;2334;48.710;9.622;2023-04-25T08:02:18;4.23;;;2.17;;
4642;SDS011;2334;48.710;9.622;2023-04-25T08:04:45;3.90;;;2.27;;
4642;SDS011;2334;48.710;9.622;2023-04-25T08:07:14;4.40;;;2.20;;
4642;SDS011;2334;48.710;9.622;2023-04-25T08:09:41;3.90;;;2.10;;
4642;SDS011;2334;48.710;9.622;2023-04-25T08:12:08;7.43;;;2.80;;
4642;SDS011;2334;48.710;9.622;2023-04-25T08:14:36;2.33;;;1.70;;
4642;SDS011;2334;48.710;9.622;2023-04-25T08:17:04;4.47;;;2.20;;
4642;SDS011;2334;48.710;9.622;2023-04-25T08:19:31;7.80;;;2.80;;
4642;SDS011;2334;48.710;9.622;2023-04-25T08:21:58;1.90;;;1.80;;
4642;SDS011;2334;48.710;9.622;2023-04-25T08:24:25;2.53;;;2.33;;
4642;SDS011;2334;48.710;9.622;2023-04-25T08:26:52;1.80;;;1.70;;
4642;SDS011;2334;48.710;9.622;2023-04-25T08:29:19;3.50;;;2.60;;
4642;SDS011;2334;48.710;9.622;2023-04-25T08:31:49;2.23;;;2.03;;
4642;SDS011;2334;48.710;9.622;2023-04-25T08:34:17;11.33;;;3.50;;
4642;SDS011;2334;48.710;9.622;2023-04-25T08:36:45;8.10;;;3.57;;
4642;SDS011;2334;48.710;9.622;2023-04-25T08:39:12;9.73;;;5.50;;
4642;SDS011;2334;48.710;9.622;2023-04-25T08:41:39;6.83;;;2.53;;
4642;SDS011;2334;48.710;9.622;2023-04-25T08:44:07;9.23;;;3.53;;
4642;SDS011;2334;48.710;9.622;2023-04-25T08:46:37;3.20;;;2.90;;
4642;SDS011;2334;48.710;9.622;2023-04-25T08:49:07;5.70;;;2.83;;
4642;SDS011;2334;48.710;9.622;2023-04-25T08:51:35;3.93;;;2.67;;
4642;SDS011;2334;48.710;9.622;2023-04-25T08:54:13;2.77;;;2.30;;
4642;SDS011;2334;48.710;9.622;2023-04-25T08:56:41;3.03;;;2.70;;
4642;SDS011;2334;48.710;9.622;2023-04-25T08:59:11;3.10;;;2.70;;
4642;SDS011;2334;48.710;9.622;2023-04-25T09:01:38;2.70;;;2.47;;
4642;SDS011;2334;48.710;9.622;2023-04-25T09:04:06;5.50;;;3.67;;
4642;SDS011;2334;48.710;9.622;2023-04-25T09:06:33;5.33;;;3.70;;
4642;SDS011;2334;48.710;9.622;2023-04-25T09:09:05;14.73;;;6.40;;
4642;SDS011;2334;48.710;9.622;2023-04-25T09:11:32;15.23;;;5.73;;
4642;SDS011;2334;48.710;9.622;2023-04-25T09:14:13;41.90;;;14.30;;
4642;SDS011;2334;48.710;9.622;2023-04-25T09:16:57;14.70;;;5.20;;
4642;SDS011;2334;48.710;9.622;2023-04-25T09:19:26;6.10;;;3.83;;
4642;SDS011;2334;48.710;9.622;2023-04-25T09:21:55;8.37;;;3.67;;
4642;SDS011;2334;48.710;9.622;2023-04-25T09:24:30;8.40;;;4.00;;
4642;SDS011;2334;48.710;9.622;2023-04-25T09:26:57;4.97;;;3.20;;
4642;SDS011;2334;48.710;9.622;2023-04-25T09:29:29;5.87;;;3.50;;
4642;SDS011;2334;48.710;9.622;2023-04-25T09:32:10;3.37;;;2.67;;
4642;SDS011;2334;48.710;9.622;2023-04-25T09:34:40;5.97;;;3.20;;
4642;SDS011;2334;48.710;9.622;2023-04-25T09:37:08;3.90;;;3.33;;
4642;SDS011;2334;48.710;9.622;2023-04-25T09:39:36;3.77;;;3.40;;
4642;SDS011;2334;48.710;9.622;2023-04-25T09:42:03;5.13;;;3.90;;
4642;SDS011;2334;48.710;9.622;2023-04-25T09:44:31;16.37;;;4.53;;
4642;SDS011;2334;48.710;9.622;2023-04-25T09:46:58;10.50;;;3.73;;
4642;SDS011;2334;48.710;9.622;2023-04-25T09:49:25;4.43;;;3.27;;
4642;SDS011;2334;48.710;9.622;2023-04-25T09:51:57;5.67;;;3.47;;
4642;SDS011;2334;48.710;9.622;2023-04-25T09:54:25;5.03;;;3.40;;
4642;SDS011;2334;48.710;9.622;2023-04-25T09:56:52;5.57;;;3.70;;
4642;SDS011;2334;48.710;9.622;2023-04-25T09:59:20;4.97;;;3.60;;
4642;SDS011;2334;48.710;9.622;2023-04-25T10:01:48;8.20;;;3.80;;
4642;SDS011;2334;48.710;9.622;2023-04-25T10:04:18;6.50;;;3.50;;
4642;SDS011;2334;48.710;9.622;2023-04-25T10:06:48;6.77;;;4.10;;
4642;SDS011;2334;48.710;9.622;2023-04-25T10:09:17;8.10;;;5.20;;
4642;SDS011;2334;48.710;9.622;2023-04-25T10:11:46;6.33;;;3.90;;
4642;SDS011;2334;48.710;9.622;2023-04-25T10:14:14;5.03;;;3.57;;
4642;SDS011;2334;48.710;9.622;2023-04-25T10:16:42;5.93;;;4.00;;
4642;SDS011;2334;48.710;9.622;2023-04-25T10:19:09;7.67;;;4.40;;
4642;SDS011;2334;48.710;9.622;2023-04-25T10:21:36;6.07;;;4.87;;
4642;SDS011;2334;48.710;9.622;2023-04-25T10:24:12;5.33;;;4.20;;
4642;SDS011;2334;48.710;9.622;2023-04-25T10:26:40;9.63;;;4.77;;
4642;SDS011;2334;48.710;9.622;2023-04-25T10:29:08;7.83;;;3.50;;
4642;SDS011;2334;48.710;9.622;2023-04-25T10:31:44;3.50;;;2.50;;
4642;SDS011;2334;48.710;9.622;2023-04-25T10:34:12;4.37;;;3.40;;
4642;SDS011;2334;48.710;9.622;2023-04-25T10:36:39;9.03;;;4.40;;
4642;SDS011;2334;48.710;9.622;2023-04-25T10:39:06;4.63;;;3.77;;
4642;SDS011;2334;48.710;9.622;2023-04-25T10:41:46;4.63;;;3.63;;
4642;SDS011;2334;48.710;9.622;2023-04-25T10:44:14;6.30;;;3.93;;
4642;SDS011;2334;48.710;9.622;2023-04-25T10:46:41;9.87;;;4.83;;
4642;SDS011;2334;48.710;9.622;2023-04-25T10:49:10;9.77;;;4.40;;
4642;SDS011;2334;48.710;9.622;2023-04-25T10:54:40;4.27;;;2.70;;
4642;SDS011;2334;48.710;9.622;2023-04-25T10:59:59;2.53;;;2.33;;
4642;SDS011;2334;48.710;9.622;2023-04-25T11:02:30;3.07;;;2.10;;
4642;SDS011;2334;48.710;9.622;2023-04-25T11:04:57;2.03;;;1.83;;
4642;SDS011;2334;48.710;9.622;2023-04-25T11:07:26;3.47;;;2.87;;
4642;SDS011;2334;48.710;9.622;2023-04-25T11:10:01;2.97;;;2.17;;
4642;SDS011;2334;48.710;9.622;2023-04-25T11:12:31;3.77;;;2.57;;
4642;SDS011;2334;48.710;9.622;2023-04-25T11:14:58;3.73;;;3.27;;
4642;SDS011;2334;48.710;9.622;2023-04-25T11:17:26;5.80;;;4.03;;
4642;SDS011;2334;48.710;9.622;2023-04-25T11:19:54;7.60;;;3.90;;
4642;SDS011;2334;48.710;9.622;2023-04-25T11:22:22;7.07;;;3.60;;
4642;SDS011;2334;48.710;9.622;2023-04-25T11:24:49;4.10;;;3.60;;
4642;SDS011;2334;48.710;9.622;2023-04-25T11:27:17;3.63;;;2.67;;
4642;SDS011;2334;48.710;9.622;2023-04-25T11:29:45;3.77;;;3.10;;
4642;SDS011;2334;48.710;9.622;2023-04-25T11:32:14;3.60;;;2.80;;
4642;SDS011;2334;48.710;9.622;2023-04-25T11:34:42;6.40;;;3.47;;
4642;SDS011;2334;48.710;9.622;2023-04-25T11:37:10;2.43;;;1.93;;
4642;SDS011;2334;48.710;9.622;2023-04-25T11:39:39;2.23;;;1.60;;
4642;SDS011;2334;48.710;9.622;2023-04-25T11:42:11;2.00;;;1.60;;
4642;SDS011;2334;48.710;9.622;2023-04-25T11:44:38;2.53;;;2.33;;
4642;SDS011;2334;48.710;9.622;2023-04-25T11:47:07;3.03;;;1.70;;
4642;SDS011;2334;48.710;9.622;2023-04-25T11:49:34;4.10;;;2.33;;
4642;SDS011;2334;48.710;9.622;2023-04-25T11:52:02;2.83;;;2.10;;
4642;SDS011;2334;48.710;9.622;2023-04-25T11:54:29;2.80;;;2.10;;
4642;SDS011;2334;48.710;9.622;2023-04-25T11:56:55;1.97;;;1.60;;
4642;SDS011;2334;48.710;9.622;2023-04-25T11:59:23;1.67;;;1.47;;
4642;SDS011;2334;48.710;9.622;2023-04-25T12:01:51;1.17;;;1.17;;
4642;SDS011;2334;48.710;9.622;2023-04-25T12:04:20;2.50;;;1.30;;
4642;SDS011;2334;48.710;9.622;2023-04-25T12:06:48;1.70;;;1.60;;
4642;SDS011;2334;48.710;9.622;2023-04-25T12:09:17;1.00;;;1.00;;
4642;SDS011;2334;48.710;9.622;2023-04-25T12:11:47;1.03;;;1.00;;
4642;SDS011;2334;48.710;9.622;2023-04-25T12:14:23;1.13;;;1.10;;
4642;SDS011;2334;48.710;9.622;2023-04-25T12:16:51;3.87;;;0.90;;
4642;SDS011;2334;48.710;9.622;2023-04-25T12:19:20;1.73;;;1.63;;
4642;SDS011;2334;48.710;9.622;2023-04-25T12:21:49;1.40;;;1.30;;
4642;SDS011;2334;48.710;9.622;2023-04-25T12:24:17;1.53;;;1.10;;
4642;SDS011;2334;48.710;9.622;2023-04-25T12:26:50;1.70;;;1.27;;
4642;SDS011;2334;48.710;9.622;2023-04-25T12:29:19;2.67;;;1.27;;
4642;SDS011;2334;48.710;9.622;2023-04-25T12:31:47;1.20;;;1.13;;
4642;SDS011;2334;48.710;9.622;2023-04-25T12:34:14;1.63;;;1.40;;
4642;SDS011;2334;48.710;9.622;2023-04-25T12:36:43;2.40;;;1.30;;
4642;SDS011;2334;48.710;9.622;2023-04-25T12:39:14;1.53;;;1.23;;
4642;SDS011;2334;48.710;9.622;2023-04-25T12:41:41;3.63;;;1.10;;
4642;SDS011;2334;48.710;9.622;2023-04-25T12:44:09;2.07;;;1.00;;
4642;SDS011;2334;48.710;9.622;2023-04-25T12:46:35;0.70;;;0.70;;
4642;SDS011;2334;48.710;9.622;2023-04-25T12:49:03;4.03;;;0.80;;
4642;SDS011;2334;48.710;9.622;2023-04-25T12:51:31;0.80;;;0.80;;
4642;SDS011;2334;48.710;9.622;2023-04-25T12:53:59;0.80;;;0.80;;
4642;SDS011;2334;48.710;9.622;2023-04-25T12:56:26;1.20;;;1.10;;
4642;SDS011;2334;48.710;9.622;2023-04-25T12:58:53;0.70;;;0.70;;
4642;SDS011;2334;48.710;9.622;2023-04-25T13:01:20;2.07;;;1.00;;
4642;SDS011;2334;48.710;9.622;2023-04-25T13:03:48;1.03;;;1.00;;
4642;SDS011;2334;48.710;9.622;2023-04-25T13:06:15;5.60;;;1.30;;
4642;SDS011;2334;48.710;9.622;2023-04-25T13:08:43;2.30;;;1.40;;
4642;SDS011;2334;48.710;9.622;2023-04-25T13:11:12;0.90;;;0.90;;
4642;SDS011;2334;48.710;9.622;2023-04-25T13:13:40;1.20;;;1.10;;
4642;SDS011;2334;48.710;9.622;2023-04-25T13:16:08;1.73;;;1.50;;
4642;SDS011;2334;48.710;9.622;2023-04-25T13:18:35;1.00;;;1.00;;
4642;SDS011;2334;48.710;9.622;2023-04-25T13:21:02;1.20;;;1.10;;
4642;SDS011;2334;48.710;9.622;2023-04-25T13:23:29;1.67;;;1.50;;
4642;SDS011;2334;48.710;9.622;2023-04-25T13:25:56;1.67;;;1.57;;
4642;SDS011;2334;48.710;9.622;2023-04-25T13:28:25;1.40;;;1.30;;
4642;SDS011;2334;48.710;9.622;2023-04-25T13:30:52;1.70;;;1.60;;
4642;SDS011;2334;48.710;9.622;2023-04-25T13:33:19;1.00;;;1.00;;
4642;SDS011;2334;48.710;9.622;2023-04-25T13:35:46;3.53;;;1.50;;
4642;SDS011;2334;48.710;9.622;2023-04-25T13:38:18;1.40;;;1.30;;
4642;SDS011;2334;48.710;9.622;2023-04-25T13:40:46;2.20;;;1.77;;
4642;SDS011;2334;48.710;9.622;2023-04-25T13:43:13;1.80;;;1.70;;
4642;SDS011;2334;48.710;9.622;2023-04-25T13:45:42;1.80;;;1.70;;
4642;SDS011;2334;48.710;9.622;2023-04-25T13:48:08;4.93;;;1.67;;
4642;SDS011;2334;48.710;9.622;2023-04-25T13:50:35;1.70;;;1.60;;
4642;SDS011;2334;48.710;9.622;2023-04-25T13:53:02;12.33;;;2.00;;
4642;SDS011;2334;48.710;9.622;2023-04-25T13:55:29;2.30;;;1.90;;
4642;SDS011;2334;48.710;9.622;2023-04-25T13:57:56;2.30;;;2.10;;
4642;SDS011;2334;48.710;9.622;2023-04-25T14:00:23;2.50;;;2.20;;
4642;SDS011;2334;48.710;9.622;2023-04-25T14:02:52;2.00;;;1.90;;
4642;SDS011;2334;48.710;9.622;2023-04-25T14:05:19;5.70;;;1.97;;
4642;SDS011;2334;48.710;9.622;2023-04-25T14:07:45;4.03;;;2.13;;
4642;SDS011;2334;48.710;9.622;2023-04-25T14:10:12;2.10;;;1.90;;
4642;SDS011;2334;48.710;9.622;2023-04-25T14:12:39;2.07;;;1.80;;
4642;SDS011;2334;48.710;9.622;2023-04-25T14:15:06;2.70;;;2.13;;
4642;SDS011;2334;48.710;9.622;2023-04-25T14:17:33;3.33;;;2.50;;
4642;SDS011;2334;48.710;9.622;2023-04-25T14:20:02;3.40;;;2.77;;
4642;SDS011;2334;48.710;9.622;2023-04-25T14:22:30;3.93;;;3.10;;
4642;SDS011;2334;48.710;9.622;2023-04-25T14:24:57;3.33;;;2.80;;
4642;SDS011;2334;48.710;9.622;2023-04-25T14:27:24;4.13;;;3.30;;
4642;SDS011;2334;48.710;9.622;2023-04-25T14:29:51;3.50;;;2.83;;
4642;SDS011;2334;48.710;9.622;2023-04-25T14:32:18;5.83;;;2.90;;
4642;SDS011;2334;48.710;9.622;2023-04-25T14:34:45;5.57;;;3.50;;
4642;SDS011;2334;48.710;9.622;2023-04-25T14:37:14;3.40;;;3.10;;
4642;SDS011;2334;48.710;9.622;2023-04-25T14:39:41;5.73;;;2.90;;
4642;SDS011;2334;48.710;9.622;2023-04-25T14:42:08;4.30;;;3.10;;
4642;SDS011;2334;48.710;9.622;2023-04-25T14:44:42;4.80;;;3.30;;
4642;SDS011;2334;48.710;9.622;2023-04-25T14:47:09;4.83;;;3.60;;
4642;SDS011;2334;48.710;9.622;2023-04-25T14:49:35;3.50;;;3.20;;
4642;SDS011;2334;48.710;9.622;2023-04-25T14:52:02;6.83;;;4.27;;
4642;SDS011;2334;48.710;9.622;2023-04-25T14:54:31;6.97;;;4.37;;
4642;SDS011;2334;48.710;9.622;2023-04-25T14:56:58;6.93;;;4.70;;
4642;SDS011;2334;48.710;9.622;2023-04-25T14:59:25;6.67;;;4.23;;
4642;SDS011;2334;48.710;9.622;2023-04-25T15:01:53;6.20;;;4.37;;
4642;SDS011;2334;48.710;9.622;2023-04-25T15:04:20;8.30;;;4.57;;
4642;SDS011;2334;48.710;9.622;2023-04-25T15:06:47;7.17;;;4.50;;
4642;SDS011;2334;48.710;9.622;2023-04-25T15:09:14;6.53;;;4.90;;
4642;SDS011;2334;48.710;9.622;2023-04-25T15:11:43;7.93;;;4.33;;
4642;SDS011;2334;48.710;9.622;2023-04-25T15:14:10;6.40;;;4.70;;
4642;SDS011;2334;48.710;9.622;2023-04-25T15:16:37;8.93;;;5.17;;
4642;SDS011;2334;48.710;9.622;2023-04-25T15:19:04;8.03;;;4.47;;
4642;SDS011;2334;48.710;9.622;2023-04-25T15:21:31;9.30;;;4.40;;
4642;SDS011;2334;48.710;9.622;2023-04-25T15:23:58;4.57;;;3.50;;